Williamsport Regional Airport
KIPT : rendu visible

Aérodrome :











RETROUVEZ-NOUS SUR...

 
LOGIN :

S'inscrire | Disclaimer

   EN    FR    IT 

 









Légende :    VFR   VFR Marginal   IFR   IFR Intensif   IFR Très Intensif
Visi : 
Plafond : 
>= 8 km
>= 3000ft
5 à 8 km
1000 à 3000 ft
1500m à 5 km
500 à 1000 ft
800 à 1500m
200 à 500 ft
< 800m
< 200 ft
Symboles :   Orages  Brouillard  Fortes neiges  Fortes précipitations  Vent > 20 kt






- Altitude de l'aérodrome : 529 ft
- Code IATA : IPT


KIPT - Williamsport Regional

DERNIER METAR :
  • 080954Z AUTO 00000KT 7SM FEW016 11/10 A2952 RMK AO2 SLP994 T01110100

METARs EXPIRÉS :
  • 080916Z AUTO 24004KT 5SM BR SCT010 BKN015 OVC020 11/10 A2950 RMK AO2 T01060100
  • 080854Z AUTO 27003KT 10SM BKN009 OVC018 11/10 A2951 RMK AO2 CIG 008V013 SLP991 60020 T01110100 55016
  • 080846Z AUTO 00000KT 9SM FEW005 BKN010 OVC018 11/11 A2950 RMK AO2 T01110106
  • 080836Z AUTO 00000KT 9SM FEW005 SCT010 BKN018 11/10 A2949 RMK AO2 T01110100
  • 080754Z AUTO 04004KT 10SM FEW016 SCT120 12/10 A2949 RMK AO2 RAB0656E37 SLP985 P0002 T01170100
  • 080720Z AUTO 16004KT 10SM -RA SCT015 BKN080 OVC100 11/10 A2951 RMK AO2 RAB0656 PRESFR P0001 T01110100

TAF KIPT
Valide du 08 à 09h jusqu'au 09 à 06h UTC


080836Z 0809/0906 VRB04KT P6SM FEW015 BKN080
FM081000 29005KT P6SM BKN040
TEMPO 0812/0816 BKN030
FM081600 29009KT P6SM BKN045
FM081900 29010G19KT P6SM SCT060
FM082300 VRB05KT P6SM SKC



MET'MAP, la Météo Aéronautique d'un coup d'oeil ! - Copyright ORBIFLY Décembre 2007 - Disclaimer

ORBIFLY MET'MAP TEAM :

Programmation & Développement : Alexandra Zaïnal
Sur une idée originale de : Baudouin d'Aumeries
Assistance à la programmation : Marc-Olivier Méhu
Soutien technique & logistique : Manuel Goepfert

Contact : metmap@orbifly.com




SOURCES & CREDITS :

   NOAA       Earth
Advisory